AirNav   Duncan Aviation - Near you to keep you flying
 
 1203 users online  

SD76 Tennant Ranch Airport
Camp Crook, South Dakota, USA

GOING TO CAMP CROOK?


FAA INFORMATION EFFECTIVE 01 DECEMBER 2022

Location

FAA Identifier: SD76
Lat/Long: 45-49-45.9980N 103-56-43.7510W
45-49.766633N 103-56.729183W
45.8294439,-103.9454864
(estimated)
Elevation: 3090 ft. / 942 m (estimated)
Variation: 12E (1985)
From city: 17 miles N of CAMP CROOK, SD
Time zone: UTC -7 (UTC -6 during Daylight Saving Time)
Zip code: 57724

Airport Operations

Airport use: Private use. Permission required prior to landing
Activation date: 06/1974
Control tower: no
ARTCC: SALT LAKE CITY CENTER
FSS: HURON FLIGHT SERVICE STATION
Attendance: UNATNDD
Wind indicator: yes
Segmented circle: no

Airport Services

Fuel available: 100LL
Airframe service: NONE
Powerplant service: NONE

Runway Information

Runway 3/21

Dimensions: 2100 x 30 ft. / 640 x 9 m
Surface: gravel
RUNWAY 3  RUNWAY 21
Traffic pattern: leftleft

Runway 12/30

Dimensions: 1400 x 50 ft. / 427 x 15 m
Surface: gravel
RUNWAY 12  RUNWAY 30
Traffic pattern: leftleft
Obstructions: 40 ft. plinenone

Airport Ownership and Management from official FAA records

Ownership: Privately-owned
Owner: GARY TENNANT
10995 N CAMP CROOK RD
CAMP CROOK, SD 57724
Phone 605-797-4470
Manager: JEAN TENNANT
10995 N CAMP CROOK RD
CAMP CROOK, SD 57724
Phone 605-797-4470

Airport Operational Statistics

Aircraft based on the field: 1
Single engine airplanes: 1
    

Additional Remarks

FOR CD CTC SALT LAKE ARTCC AT 801-320-2568.

Instrument Procedures

There are no published instrument procedures at SD76.

Some nearby airports with instrument procedures:

KBWW - Bowman Regional Airport (34 nm NE)
KBHK - Baker Municipal Airport (34 nm NW)
KHEI - Hettinger/JB Lindquist Regional Airport (55 nm E)
20U - Beach Airport (66 nm N)
KEFC - Belle Fourche Municipal Airport (66 nm S)
 
Loc | Ops | Rwys | IFR | FBO | Links
Com | Nav | Svcs | Stats | Notes

Bismarck Aero Center
AirBoss

 
Area around SD76 (Tennant Ranch Airport)
 
Road maps at: MapQuest Bing Google
 
Aerial photo
No photo
 
Sectional chart

 
Airport distance calculator
Flying to Tennant Ranch Airport? Find the distance to fly.

From to SD76

Sunrise and sunset
Times for 01-Dec-2022
 Local
(UTC-7)
 Zulu
(UTC)
Morning civil twilight06:4413:44
Sunrise07:1814:18
Sunset16:1223:12
Evening civil twilight16:4623:46

Current date and time
Zulu (UTC)  02-Dec-2022 02:57:08
Local (UTC-7)  01-Dec-2022 19:57:08
 
METAR
K2WX 
22nm SE 
020156Z AUTO 22003KT 02/M07 A2941 RMK AO1 SLP994 T00221072
KBWW 
34nm NE 
020255Z AUTO 15006KT 10SM CLR M02/M07 A2943 RMK AO2
KBHK 
34nm N 
010351Z AUTO 13014KT 10SM CLR M09/M14 A2974 RMK AO2 SLP124 T10891144
TAF
NOTAMs
Click for the latest NOTAMs
NOTAMs are issued by the DoD/FAA and will open in a separate window not controlled by AirNav.

 

 
 

Would you like to see your business listed on this page?

 If your business provides an interesting product or service to pilots, flight crews, aircraft, or users of the Tennant Ranch Airport, you should consider listing it here.  To start the listing process, click on the button below
 
Add a business
 

Other Pages about Tennant Ranch Airport

Update a link
 
Copyright © AirNav, LLC. All rights reserved. Privacy Policy  Contact